Time;durP1;ratioP1;P1;durP2;ratioP2;P2;SDS_P1;SDS_P2;PMS_P1;PMS_P2;Temp;Humidity;BMP_temperature;BMP_pressure;BME280_temperature;BME280_humidity;BME280_pressure;Samples;Min_cycle;Max_cycle;Signal;HPM_P1;HPM_P2
2021/10/28 00:14:44;;;;;;;25.65;11.90;;;;;;;;;;5033168;28;20057;-54
2021/10/28 00:17:12;;;;;;;28.73;10.70;;;;;;;;;;5033611;28;20075;-54
2021/10/28 00:19:40;;;;;;;31.92;11.82;;;;;;;;;;5033830;28;20051;-54
2021/10/28 00:22:07;;;;;;;24.40;11.38;;;;;;;;;;5033705;28;20344;-54
2021/10/28 00:24:33;;;;;;;38.60;12.10;;;;;;;;;;5032722;28;20023;-54
2021/10/28 00:26:59;;;;;;;29.83;13.13;;;;;;;;;;5033493;28;20080;-54
2021/10/28 00:29:26;;;;;;;32.08;12.20;;;;;;;;;;5031570;28;20033;-54
2021/10/28 00:31:55;;;;;;;27.02;10.35;;;;;;;;;;5033121;28;20428;-54
2021/10/28 00:34:21;;;;;;;24.92;10.20;;;;;;;;;;5032765;28;20022;-54
2021/10/28 00:36:48;;;;;;;30.48;11.93;;;;;;;;;;5033524;28;20026;-54
2021/10/28 00:39:15;;;;;;;34.08;13.43;;;;;;;;;;5033154;28;20029;-54
2021/10/28 00:41:41;;;;;;;31.63;12.50;;;;;;;;;;5033368;28;20028;-54
2021/10/28 00:44:07;;;;;;;33.90;13.05;;;;;;;;;;5032571;28;20058;-54
2021/10/28 00:46:35;;;;;;;31.67;11.63;;;;;;;;;;5033087;28;20026;-54
2021/10/28 00:49:02;;;;;;;24.48;10.38;;;;;;;;;;5033347;28;20363;-54
2021/10/28 00:51:29;;;;;;;43.83;15.98;;;;;;;;;;5032628;28;20463;-54
2021/10/28 00:53:56;;;;;;;33.80;13.52;;;;;;;;;;5032608;28;20036;-54
2021/10/28 00:56:23;;;;;;;33.33;12.98;;;;;;;;;;5033186;28;20386;-54
2021/10/28 00:58:50;;;;;;;35.13;13.95;;;;;;;;;;5032873;28;20065;-54
2021/10/28 01:01:16;;;;;;;32.03;12.52;;;;;;;;;;5032921;28;20104;-54
2021/10/28 01:03:43;;;;;;;24.83;10.90;;;;;;;;;;5032631;28;20040;-54
2021/10/28 01:06:10;;;;;;;22.23;8.55;;;;;;;;;;5032631;28;20022;-55
2021/10/28 01:08:39;;;;;;;30.27;11.57;;;;;;;;;;5033015;28;20462;-55
2021/10/28 01:11:06;;;;;;;20.92;8.75;;;;;;;;;;5032666;28;20075;-54
2021/10/28 01:13:34;;;;;;;21.35;10.90;;;;;;;;;;5032434;28;20104;-55
2021/10/28 01:16:00;;;;;;;32.72;11.77;;;;;;;;;;5032411;28;20447;-54
2021/10/28 01:18:28;;;;;;;24.30;10.80;;;;;;;;;;5032582;28;20112;-54
2021/10/28 01:20:55;;;;;;;29.88;8.63;;;;;;;;;;5032826;28;20419;-55
2021/10/28 01:23:23;;;;;;;33.92;13.20;;;;;;;;;;5032088;28;20022;-55
2021/10/28 01:25:51;;;;;;;33.25;13.50;;;;;;;;;;5036918;28;20066;-54
2021/10/28 01:28:17;;;;;;;27.08;11.63;;;;;;;;;;5036984;28;20048;-55
2021/10/28 01:30:50;;;;;;;20.52;9.23;;;;;;;;;;5034938;28;20033;-55
2021/10/28 01:33:17;;;;;;;30.02;11.98;;;;;;;;;;5036088;28;20026;-54
2021/10/28 01:35:43;;;;;;;32.65;12.95;;;;;;;;;;5037205;28;20063;-54
2021/10/28 01:38:11;;;;;;;30.95;12.00;;;;;;;;;;5036597;28;20030;-54
2021/10/28 01:40:37;;;;;;;29.15;12.65;;;;;;;;;;5036203;28;20471;-54
2021/10/28 01:43:03;;;;;;;33.13;13.80;;;;;;;;;;5035551;28;20025;-54
2021/10/28 01:45:30;;;;;;;30.20;10.23;;;;;;;;;;5036808;28;20033;-54
2021/10/28 01:47:56;;;;;;;30.20;11.75;;;;;;;;;;5034853;28;20036;-54
2021/10/28 01:50:22;;;;;;;29.90;13.02;;;;;;;;;;5036398;28;20359;-54
2021/10/28 01:52:48;;;;;;;35.95;11.85;;;;;;;;;;5036137;28;20473;-54
2021/10/28 01:55:14;;;;;;;34.80;11.82;;;;;;;;;;5034398;28;20029;-55
2021/10/28 01:57:41;;;;;;;31.38;10.50;;;;;;;;;;5036298;28;20064;-54
2021/10/28 02:00:15;;;;;;;22.52;10.20;;;;;;;;;;5036056;28;20030;-55
2021/10/28 02:02:42;;;;;;;21.58;8.82;;;;;;;;;;5036267;28;20076;-55
2021/10/28 02:05:11;;;;;;;25.58;10.95;;;;;;;;;;5035705;28;20333;-55
2021/10/28 02:07:37;;;;;;;25.08;10.13;;;;;;;;;;5031454;28;20100;-54
2021/10/28 02:10:05;;;;;;;34.40;10.20;;;;;;;;;;5035973;28;20125;-55
2021/10/28 02:12:32;;;;;;;21.98;10.77;;;;;;;;;;5036024;28;20087;-54
2021/10/28 02:14:58;;;;;;;29.60;9.95;;;;;;;;;;5034965;28;20095;-54
2021/10/28 02:17:24;;;;;;;29.83;11.60;;;;;;;;;;5036085;28;20029;-54
2021/10/28 02:19:50;;;;;;;30.60;10.63;;;;;;;;;;5035797;28;20355;-55
2021/10/28 02:22:16;;;;;;;32.08;12.48;;;;;;;;;;5035311;28;20057;-55
2021/10/28 02:24:42;;;;;;;25.83;10.45;;;;;;;;;;5034971;28;20025;-55
2021/10/28 02:27:08;;;;;;;27.70;10.00;;;;;;;;;;5036127;28;20018;-55
2021/10/28 02:29:34;;;;;;;23.25;10.60;;;;;;;;;;5033656;28;20029;-55
2021/10/28 02:32:00;;;;;;;25.40;10.40;;;;;;;;;;5035664;28;20096;-54
2021/10/28 02:34:26;;;;;;;24.92;11.45;;;;;;;;;;5034629;28;20025;-54
2021/10/28 02:36:52;;;;;;;21.77;9.60;;;;;;;;;;5035186;28;20096;-55
2021/10/28 02:39:18;;;;;;;25.38;10.32;;;;;;;;;;5035582;28;20040;-54
2021/10/28 02:41:45;;;;;;;19.67;9.50;;;;;;;;;;5035668;28;20104;-55
2021/10/28 02:44:12;;;;;;;26.95;11.20;;;;;;;;;;5034820;28;20025;-55
2021/10/28 02:46:40;;;;;;;25.77;11.25;;;;;;;;;;5035378;28;20040;-55
2021/10/28 02:49:11;;;;;;;34.35;13.88;;;;;;;;;;5035120;28;20345;-54
2021/10/28 02:51:37;;;;;;;26.77;9.70;;;;;;;;;;5035529;28;20356;-54
2021/10/28 02:54:03;;;;;;;28.70;9.93;;;;;;;;;;5034462;28;20028;-54
2021/10/28 02:56:30;;;;;;;25.08;10.45;;;;;;;;;;5035150;28;20351;-55
2021/10/28 02:58:55;;;;;;;24.67;9.68;;;;;;;;;;5035067;28;20033;-54
2021/10/28 03:01:21;;;;;;;28.90;11.57;;;;;;;;;;5035254;28;20033;-54
2021/10/28 03:03:47;;;;;;;29.85;12.02;;;;;;;;;;5034197;28;20021;-54
2021/10/28 03:06:13;;;;;;;26.63;10.07;;;;;;;;;;5034655;28;20189;-55
2021/10/28 03:08:41;;;;;;;25.38;12.00;;;;;;;;;;5035126;28;20036;-54
2021/10/28 03:11:08;;;;;;;29.58;11.90;;;;;;;;;;5034920;28;20116;-54
2021/10/28 03:13:35;;;;;;;32.97;13.07;;;;;;;;;;5033894;28;20451;-54
2021/10/28 03:16:13;;;;;;;34.80;12.70;;;;;;;;;;5035015;28;20025;-54
2021/10/28 03:27:13;;;;;;;31.85;11.98;;;;;;;;;;5012419;28;20045;-54
2021/10/28 03:29:39;;;;;;;27.52;10.90;;;;;;;;;;5010154;28;20041;-55
2021/10/28 03:32:06;;;;;;;31.15;11.52;;;;;;;;;;5012628;28;20040;-55
2021/10/28 03:34:32;;;;;;;23.98;10.60;;;;;;;;;;5011275;28;20026;-55
2021/10/28 03:37:12;;;;;;;24.77;10.35;;;;;;;;;;5012109;28;20053;-55
2021/10/28 04:19:37;;;;;;;23.58;9.48;;;;;;;;;;5036212;28;20025;-54
2021/10/28 04:29:58;;;;;;;32.88;10.25;;;;;;;;;;5033500;28;20076;-55
2021/10/28 04:32:24;;;;;;;26.40;10.23;;;;;;;;;;5033447;28;20017;-55
2021/10/28 04:34:50;;;;;;;28.17;9.60;;;;;;;;;;5048633;28;20473;-55
2021/10/28 04:37:16;;;;;;;22.85;9.20;;;;;;;;;;5053206;28;20024;-54
2021/10/28 04:39:42;;;;;;;24.95;10.70;;;;;;;;;;5053187;28;20028;-54
2021/10/28 04:42:08;;;;;;;24.40;10.77;;;;;;;;;;5052728;28;20442;-54
2021/10/28 04:44:35;;;;;;;25.17;10.70;;;;;;;;;;5044989;28;20025;-55
2021/10/28 04:47:01;;;;;;;30.92;10.60;;;;;;;;;;5052828;28;20029;-54
2021/10/28 04:49:27;;;;;;;21.85;9.85;;;;;;;;;;5052761;28;20104;-55
2021/10/28 04:51:53;;;;;;;25.50;9.82;;;;;;;;;;5052043;28;20510;-54
2021/10/28 04:54:19;;;;;;;28.52;11.65;;;;;;;;;;5052399;28;20043;-55
2021/10/28 04:56:45;;;;;;;23.48;10.32;;;;;;;;;;5052117;28;20025;-54
2021/10/28 04:59:11;;;;;;;22.50;9.40;;;;;;;;;;5053070;28;20040;-55
2021/10/28 05:01:37;;;;;;;26.63;10.10;;;;;;;;;;5052872;28;20025;-55
2021/10/28 05:04:03;;;;;;;28.42;10.18;;;;;;;;;;5051757;28;20051;-54
2021/10/28 05:06:29;;;;;;;23.52;9.80;;;;;;;;;;5052625;28;20059;-55
2021/10/28 05:08:55;;;;;;;26.92;11.25;;;;;;;;;;5052600;28;20299;-55
2021/10/28 05:11:23;;;;;;;21.98;9.38;;;;;;;;;;5052080;28;20037;-55
2021/10/28 05:13:51;;;;;;;23.92;10.82;;;;;;;;;;5052119;28;20096;-55
2021/10/28 05:16:17;;;;;;;28.65;10.57;;;;;;;;;;5052093;28;20060;-54
2021/10/28 05:18:45;;;;;;;25.45;12.30;;;;;;;;;;5051508;28;20393;-54
2021/10/28 05:21:12;;;;;;;32.88;11.23;;;;;;;;;;5052234;28;20021;-55
2021/10/28 05:23:38;;;;;;;21.05;10.05;;;;;;;;;;5052037;28;20052;-55
2021/10/28 05:26:05;;;;;;;29.83;12.23;;;;;;;;;;5051888;28;20031;-55
2021/10/28 05:28:31;;;;;;;25.80;11.18;;;;;;;;;;5052522;28;20628;-55
2021/10/28 05:30:57;;;;;;;28.50;11.23;;;;;;;;;;5052175;28;20379;-54
2021/10/28 05:33:23;;;;;;;30.52;11.45;;;;;;;;;;5051117;28;20432;-54
2021/10/28 05:35:50;;;;;;;33.90;12.60;;;;;;;;;;5051967;28;20065;-54
2021/10/28 05:38:16;;;;;;;28.45;8.93;;;;;;;;;;5052702;28;20029;-55
2021/10/28 05:40:42;;;;;;;30.23;11.27;;;;;;;;;;5051682;28;20409;-54
2021/10/28 05:43:09;;;;;;;29.40;11.60;;;;;;;;;;5051911;28;20094;-55
2021/10/28 05:45:36;;;;;;;27.33;10.80;;;;;;;;;;5052674;28;20108;-56
2021/10/28 05:48:02;;;;;;;23.70;10.70;;;;;;;;;;5051656;28;20515;-54
2021/10/28 05:50:29;;;;;;;21.88;9.60;;;;;;;;;;5052243;28;20106;-54
2021/10/28 05:52:57;;;;;;;24.75;9.85;;;;;;;;;;5051275;28;20029;-54
2021/10/28 05:55:24;;;;;;;22.98;9.90;;;;;;;;;;5051944;28;20025;-53
2021/10/28 05:57:50;;;;;;;29.48;11.68;;;;;;;;;;5052359;28;20079;-53
2021/10/28 06:00:19;;;;;;;24.52;9.95;;;;;;;;;;5052346;28;20066;-54
2021/10/28 06:02:45;;;;;;;21.27;9.07;;;;;;;;;;5051299;28;20371;-54
2021/10/28 06:05:11;;;;;;;25.45;10.10;;;;;;;;;;5051509;28;20209;-53
2021/10/28 06:07:39;;;;;;;17.98;8.05;;;;;;;;;;5052475;28;20021;-54
2021/10/28 06:10:05;;;;;;;20.02;9.40;;;;;;;;;;5053156;28;20065;-54
2021/10/28 06:12:40;;;;;;;26.25;9.80;;;;;;;;;;5055568;28;20051;-54
2021/10/28 06:15:07;;;;;;;24.75;9.48;;;;;;;;;;5055440;28;20029;-54
2021/10/28 06:17:36;;;;;;;25.10;8.77;;;;;;;;;;5055415;28;20035;-53
2021/10/28 06:20:03;;;;;;;28.80;10.40;;;;;;;;;;5055882;28;20575;-53
2021/10/28 06:22:30;;;;;;;21.17;9.18;;;;;;;;;;5055849;28;20028;-54
2021/10/28 06:24:57;;;;;;;24.23;9.48;;;;;;;;;;5054523;28;20017;-53
2021/10/28 06:27:23;;;;;;;21.75;9.43;;;;;;;;;;5055642;28;20021;-54
2021/10/28 06:29:50;;;;;;;22.08;9.30;;;;;;;;;;5055027;28;20040;-54
2021/10/28 06:32:16;;;;;;;20.60;8.40;;;;;;;;;;5054564;28;20017;-54
2021/10/28 06:34:44;;;;;;;18.40;8.15;;;;;;;;;;5055030;28;20021;-54
2021/10/28 06:37:10;;;;;;;21.60;8.70;;;;;;;;;;5055747;28;20104;-54
2021/10/28 06:39:37;;;;;;;19.83;7.80;;;;;;;;;;5055096;28;20087;-54
2021/10/28 06:42:03;;;;;;;23.60;7.80;;;;;;;;;;5055764;28;20028;-54
2021/10/28 06:44:32;;;;;;;21.02;8.70;;;;;;;;;;5054169;28;20061;-54
2021/10/28 06:46:59;;;;;;;17.05;8.05;;;;;;;;;;5054606;28;20067;-54
2021/10/28 06:49:28;;;;;;;16.88;8.50;;;;;;;;;;5055618;28;20025;-54
2021/10/28 06:51:54;;;;;;;20.00;8.23;;;;;;;;;;5046451;28;20044;-54
2021/10/28 06:54:27;;;;;;;19.77;8.30;;;;;;;;;;5033895;28;20025;-55
2021/10/28 07:02:37;;;;;;;17.75;7.50;;;;;;;;;;5034502;28;20120;-54
2021/10/28 07:05:04;;;;;;;15.45;7.38;;;;;;;;;;5034467;28;20340;-54
2021/10/28 07:07:31;;;;;;;17.05;7.32;;;;;;;;;;5034661;28;20112;-54
2021/10/28 07:10:19;;;;;;;15.77;8.00;;;;;;;;;;5034097;28;20435;-54
2021/10/28 07:15:25;;;;;;;18.58;8.43;;;;;;;;;;5034470;28;20109;-54
2021/10/28 07:28:39;;;;;;;14.82;6.40;;;;;;;;;;5034266;28;20120;-54
2021/10/28 08:21:55;;;;;;;17.33;8.07;;;;;;;;;;5053586;28;20036;-54
2021/10/28 08:29:38;;;;;;;19.15;8.45;;;;;;;;;;5032563;28;20048;-54
2021/10/28 08:32:05;;;;;;;19.02;8.50;;;;;;;;;;5033314;28;20470;-54
2021/10/28 08:34:33;;;;;;;16.85;8.10;;;;;;;;;;5032332;28;20107;-54
2021/10/28 08:37:07;;;;;;;13.82;7.55;;;;;;;;;;5032584;28;20025;-54
2021/10/28 08:39:34;;;;;;;21.30;8.27;;;;;;;;;;5033541;28;20029;-54
2021/10/28 08:42:04;;;;;;;19.95;7.80;;;;;;;;;;5033170;28;20033;-54
2021/10/28 08:44:32;;;;;;;17.55;8.13;;;;;;;;;;5031928;28;20112;-54
2021/10/28 08:46:58;;;;;;;19.40;7.18;;;;;;;;;;5033126;28;20324;-54
2021/10/28 08:49:31;;;;;;;22.15;9.13;;;;;;;;;;5032868;28;20032;-54
2021/10/28 08:52:12;;;;;;;20.77;9.20;;;;;;;;;;5032711;28;20105;-54
2021/10/28 08:54:58;;;;;;;21.45;8.25;;;;;;;;;;5032377;28;20120;-53
2021/10/28 09:25:21;;;;;;;13.38;6.55;;;;;;;;;;5032768;28;20048;-54
2021/10/28 09:27:58;;;;;;;16.45;7.63;;;;;;;;;;5032349;28;20037;-54
2021/10/28 09:30:50;;;;;;;15.13;8.65;;;;;;;;;;5031739;28;20037;-54
2021/10/28 09:33:32;;;;;;;17.90;8.02;;;;;;;;;;5031203;28;20014;-54
2021/10/28 09:43:33;;;;;;;20.25;8.60;;;;;;;;;;5032606;28;20459;-54
2021/10/28 09:44:42;;;;;;;29.08;9.70;;;;;;;;;;5031684;28;20045;-54
2021/10/28 09:47:31;;;;;;;17.55;7.78;;;;;;;;;;5036448;28;20034;-54
2021/10/28 09:50:07;;;;;;;16.47;8.00;;;;;;;;;;5035966;28;20032;-53
2021/10/28 09:52:35;;;;;;;21.08;8.82;;;;;;;;;;5036177;28;20087;-54
2021/10/28 09:58:02;;;;;;;19.73;9.05;;;;;;;;;;5036136;28;20143;-54
2021/10/28 10:00:35;;;;;;;19.98;8.98;;;;;;;;;;5035399;28;20487;-53
2021/10/28 10:03:11;;;;;;;22.42;7.93;;;;;;;;;;5035560;28;20033;-54
2021/10/28 10:05:37;;;;;;;21.52;9.85;;;;;;;;;;5036303;28;20033;-54
2021/10/28 10:08:07;;;;;;;24.83;9.70;;;;;;;;;;5036191;28;20419;-54
2021/10/28 10:10:33;;;;;;;18.57;8.43;;;;;;;;;;5035889;28;20049;-54
2021/10/28 10:12:59;;;;;;;20.90;9.40;;;;;;;;;;5034773;28;20264;-54
2021/10/28 10:15:25;;;;;;;17.33;8.00;;;;;;;;;;5035674;28;20159;-54
2021/10/28 10:18:00;;;;;;;23.13;9.38;;;;;;;;;;5036328;28;20084;-54
2021/10/28 10:20:39;;;;;;;22.30;7.85;;;;;;;;;;5036007;28;20037;-54
2021/10/28 11:19:27;;;;;;;19.70;6.63;;;;;;;;;;5034578;28;20456;-54
2021/10/28 11:22:02;;;;;;;24.70;10.95;;;;;;;;;;5034056;28;20049;-54
2021/10/28 11:27:27;;;;;;;19.95;8.90;;;;;;;;;;5034145;28;20098;-54
2021/10/28 11:30:49;;;;;;;24.25;9.85;;;;;;;;;;5034254;28;20040;-54
2021/10/28 12:14:15;;;;;;;23.48;11.00;;;;;;;;;;5053466;28;20147;-54
2021/10/28 12:16:28;;;;;;;21.23;9.05;;;;;;;;;;5053749;28;20090;-54
2021/10/28 12:49:46;;;;;;;15.75;8.20;;;;;;;;;;5051546;28;20375;-54
2021/10/28 13:34:52;;;;;;;15.70;7.32;;;;;;;;;;5051103;28;20114;-54
2021/10/28 14:00:58;;;;;;;15.20;7.32;;;;;;;;;;5052332;28;20098;-54
2021/10/28 14:39:10;;;;;;;17.17;6.65;;;;;;;;;;5035299;28;20053;-54
2021/10/28 15:01:30;;;;;;;13.18;7.28;;;;;;;;;;5055090;28;20090;-54
2021/10/28 15:28:41;;;;;;;16.98;6.65;;;;;;;;;;5032412;28;20052;-54
2021/10/28 15:34:09;;;;;;;16.98;8.77;;;;;;;;;;5030731;28;20025;-54
2021/10/28 15:36:37;;;;;;;17.23;8.30;;;;;;;;;;5031818;28;20366;-54
2021/10/28 16:00:21;;;;;;;25.65;9.35;;;;;;;;;;5034135;28;20030;-54
2021/10/28 16:21:59;;;;;;;21.00;9.48;;;;;;;;;;5033486;28;20466;-53
2021/10/28 16:24:26;;;;;;;19.48;9.23;;;;;;;;;;5040724;28;20086;-53
2021/10/28 16:26:53;;;;;;;20.10;9.13;;;;;;;;;;5043407;28;20028;-54
2021/10/28 16:29:19;;;;;;;21.83;9.63;;;;;;;;;;5042531;28;20021;-53
2021/10/28 16:31:46;;;;;;;22.67;10.43;;;;;;;;;;5042584;28;20359;-53
2021/10/28 16:34:12;;;;;;;23.33;8.57;;;;;;;;;;5042298;28;20083;-53
2021/10/28 16:36:39;;;;;;;20.65;9.85;;;;;;;;;;5042250;28;20112;-54
2021/10/28 16:39:11;;;;;;;28.60;11.70;;;;;;;;;;5042914;28;20028;-53
2021/10/28 16:41:38;;;;;;;25.75;10.57;;;;;;;;;;5041638;28;20337;-53
2021/10/28 16:44:05;;;;;;;25.63;11.10;;;;;;;;;;5042418;28;20082;-56
2021/10/28 16:46:31;;;;;;;22.77;10.27;;;;;;;;;;5047230;28;20089;-56
2021/10/28 16:48:57;;;;;;;22.88;9.60;;;;;;;;;;5050211;28;20055;-55
2021/10/28 16:51:23;;;;;;;23.80;9.60;;;;;;;;;;5049037;28;20040;-56
2021/10/28 16:53:50;;;;;;;19.67;9.68;;;;;;;;;;5047955;28;20059;-56
2021/10/28 16:56:16;;;;;;;21.15;9.43;;;;;;;;;;5042613;28;20395;-56
2021/10/28 16:58:43;;;;;;;16.83;8.75;;;;;;;;;;5045005;28;20113;-56
2021/10/28 17:01:09;;;;;;;21.15;8.98;;;;;;;;;;5047226;28;20044;-56
2021/10/28 17:03:36;;;;;;;25.23;10.75;;;;;;;;;;5043738;28;20112;-56
2021/10/28 17:06:02;;;;;;;24.70;12.05;;;;;;;;;;5047956;28;20513;-55
2021/10/28 17:08:29;;;;;;;27.98;10.10;;;;;;;;;;5043834;28;20034;-55
2021/10/28 17:10:55;;;;;;;21.48;10.25;;;;;;;;;;5051994;28;20035;-56
2021/10/28 17:13:21;;;;;;;23.73;9.82;;;;;;;;;;5041268;28;20113;-56
2021/10/28 17:15:47;;;;;;;25.30;11.10;;;;;;;;;;5048553;28;20029;-56
2021/10/28 17:18:13;;;;;;;25.10;9.93;;;;;;;;;;5041488;28;20025;-56
2021/10/28 17:20:39;;;;;;;20.17;9.13;;;;;;;;;;5045713;28;20060;-56
2021/10/28 17:23:09;;;;;;;20.92;8.63;;;;;;;;;;5031806;28;20047;-56
2021/10/28 17:25:40;;;;;;;20.38;8.80;;;;;;;;;;5034305;28;20411;-56
2021/10/28 17:28:06;;;;;;;16.83;7.80;;;;;;;;;;5040633;28;20457;-55
2021/10/28 17:30:32;;;;;;;17.52;8.07;;;;;;;;;;5037834;28;20379;-55
2021/10/28 17:32:58;;;;;;;22.00;9.90;;;;;;;;;;5036879;28;20021;-56
2021/10/28 17:35:25;;;;;;;23.83;10.02;;;;;;;;;;5036442;28;20024;-56
2021/10/28 17:37:51;;;;;;;24.23;9.80;;;;;;;;;;5035243;28;20471;-56
2021/10/28 17:40:17;;;;;;;24.42;10.07;;;;;;;;;;5040063;28;20021;-56
2021/10/28 17:42:43;;;;;;;21.85;10.23;;;;;;;;;;5033887;28;20021;-55
2021/10/28 17:45:12;;;;;;;27.83;10.52;;;;;;;;;;5043622;28;20024;-56
2021/10/28 17:47:39;;;;;;;29.50;10.52;;;;;;;;;;5032186;28;20040;-56
2021/10/28 17:50:05;;;;;;;20.50;9.18;;;;;;;;;;5038997;28;20435;-56
2021/10/28 17:52:31;;;;;;;24.10;9.32;;;;;;;;;;5036119;28;20367;-56
2021/10/28 17:54:57;;;;;;;19.98;9.18;;;;;;;;;;5035165;28;20022;-56
2021/10/28 17:57:23;;;;;;;18.83;8.98;;;;;;;;;;5035707;28;20017;-56
2021/10/28 17:59:50;;;;;;;19.63;9.00;;;;;;;;;;5034330;28;20057;-55
2021/10/28 18:02:16;;;;;;;16.90;7.97;;;;;;;;;;5041247;28;20111;-55
2021/10/28 18:04:43;;;;;;;16.90;8.27;;;;;;;;;;5035132;28;20413;-56
2021/10/28 18:07:09;;;;;;;19.17;8.68;;;;;;;;;;5041989;28;20454;-56
2021/10/28 18:09:37;;;;;;;15.68;7.90;;;;;;;;;;5038996;28;20033;-55
2021/10/28 18:12:03;;;;;;;20.85;8.20;;;;;;;;;;5039824;28;20033;-56
2021/10/28 18:14:30;;;;;;;15.70;8.18;;;;;;;;;;5038708;28;20017;-56
2021/10/28 18:16:57;;;;;;;25.50;10.00;;;;;;;;;;5045324;28;20020;-56
2021/10/28 18:19:23;;;;;;;16.50;8.60;;;;;;;;;;5044469;28;20108;-56
2021/10/28 18:21:54;;;;;;;20.92;8.70;;;;;;;;;;5046863;28;20090;-56
2021/10/28 18:24:21;;;;;;;18.08;7.88;;;;;;;;;;5049602;28;20023;-56
2021/10/28 18:26:47;;;;;;;20.50;9.63;;;;;;;;;;5044104;28;20036;-56
2021/10/28 18:29:13;;;;;;;20.15;9.48;;;;;;;;;;5047799;28;20021;-56
2021/10/28 18:31:39;;;;;;;13.75;7.50;;;;;;;;;;5046166;28;20029;-56
2021/10/28 18:34:06;;;;;;;15.40;8.35;;;;;;;;;;5046099;28;20060;-56
2021/10/28 18:36:34;;;;;;;16.55;8.02;;;;;;;;;;5049314;28;20025;-55
2021/10/28 18:39:00;;;;;;;16.52;7.85;;;;;;;;;;5050912;28;20092;-56
2021/10/28 18:41:26;;;;;;;18.88;8.32;;;;;;;;;;5048517;28;20104;-55
2021/10/28 18:43:53;;;;;;;21.70;8.18;;;;;;;;;;5042185;28;20075;-55
2021/10/28 18:46:23;;;;;;;15.40;8.00;;;;;;;;;;5060632;28;20059;-56
2021/10/28 18:48:58;;;;;;;17.02;8.18;;;;;;;;;;5073294;28;20082;-55
2021/10/28 18:51:24;;;;;;;27.70;10.57;;;;;;;;;;5058201;28;20052;-55
2021/10/28 18:53:51;;;;;;;18.80;8.93;;;;;;;;;;5053600;28;20025;-55
2021/10/28 18:56:18;;;;;;;25.02;10.63;;;;;;;;;;5053775;28;20028;-56
2021/10/28 18:58:45;;;;;;;16.60;8.45;;;;;;;;;;5054478;28;20025;-55
2021/10/28 19:01:12;;;;;;;15.93;8.30;;;;;;;;;;5054739;28;20057;-55
2021/10/28 19:03:40;;;;;;;20.48;8.93;;;;;;;;;;5053844;28;20043;-56
2021/10/28 19:06:07;;;;;;;21.92;9.63;;;;;;;;;;5054654;28;20032;-56
2021/10/28 19:08:35;;;;;;;17.15;8.30;;;;;;;;;;5054208;28;20029;-56
2021/10/28 19:11:01;;;;;;;18.95;8.70;;;;;;;;;;5054437;28;20523;-56
2021/10/28 19:13:27;;;;;;;21.20;9.73;;;;;;;;;;5053777;28;20100;-55
2021/10/28 19:15:55;;;;;;;17.77;7.97;;;;;;;;;;5054495;28;20025;-56
2021/10/28 19:18:21;;;;;;;18.45;9.23;;;;;;;;;;5045654;28;20037;-55
2021/10/28 19:20:47;;;;;;;18.27;8.85;;;;;;;;;;5050767;28;20020;-55
2021/10/28 19:23:13;;;;;;;21.38;8.57;;;;;;;;;;5053021;28;20083;-56
2021/10/28 19:25:39;;;;;;;18.98;8.25;;;;;;;;;;5054029;28;20029;-56
2021/10/28 19:28:07;;;;;;;19.55;9.63;;;;;;;;;;5054199;28;20024;-56
2021/10/28 19:30:36;;;;;;;23.52;9.27;;;;;;;;;;5053542;28;20033;-55
2021/10/28 19:33:11;;;;;;;21.50;9.07;;;;;;;;;;5052766;28;20032;-56
2021/10/28 19:35:40;;;;;;;20.67;10.05;;;;;;;;;;5054028;28;20078;-56
2021/10/28 19:46:21;;;;;;;17.52;8.60;;;;;;;;;;5033744;28;20044;-55
2021/10/28 19:48:47;;;;;;;18.95;8.55;;;;;;;;;;5032519;28;20025;-56
2021/10/28 19:51:15;;;;;;;18.48;9.10;;;;;;;;;;5033614;28;20489;-55
2021/10/28 19:53:41;;;;;;;19.88;9.45;;;;;;;;;;5032214;28;20040;-55
2021/10/28 19:56:13;;;;;;;16.70;8.68;;;;;;;;;;5033185;28;20022;-56
2021/10/28 19:58:42;;;;;;;18.85;8.93;;;;;;;;;;5033215;28;20443;-55
2021/10/28 20:04:10;;;;;;;16.95;7.30;;;;;;;;;;5052180;28;20464;-55
2021/10/28 20:22:34;;;;;;;20.85;9.25;;;;;;;;;;5053309;28;20112;-55
2021/10/28 20:25:00;;;;;;;23.50;9.38;;;;;;;;;;5035795;28;20029;-56
2021/10/28 20:27:26;;;;;;;21.30;9.30;;;;;;;;;;5033865;28;20032;-55
2021/10/28 20:29:53;;;;;;;24.63;10.25;;;;;;;;;;5031657;28;20293;-56
2021/10/28 20:32:19;;;;;;;18.35;8.63;;;;;;;;;;5032227;28;20064;-55
2021/10/28 20:34:52;;;;;;;18.17;9.15;;;;;;;;;;5032634;28;20384;-55
2021/10/28 20:37:18;;;;;;;18.05;8.77;;;;;;;;;;5033338;28;20040;-56
2021/10/28 20:39:45;;;;;;;17.38;8.18;;;;;;;;;;5033488;28;20025;-55
2021/10/28 20:42:14;;;;;;;16.45;9.00;;;;;;;;;;5033239;28;20029;-55
2021/10/28 20:44:40;;;;;;;19.55;8.20;;;;;;;;;;5032488;28;20106;-56
2021/10/28 20:47:07;;;;;;;16.65;8.38;;;;;;;;;;5033686;28;20108;-56
2021/10/28 20:49:33;;;;;;;20.63;8.95;;;;;;;;;;5033384;28;20025;-56
2021/10/28 20:51:59;;;;;;;18.48;8.60;;;;;;;;;;5033139;28;20042;-55
2021/10/28 20:54:25;;;;;;;16.08;7.95;;;;;;;;;;5032289;28;20406;-55
2021/10/28 20:56:51;;;;;;;15.85;7.53;;;;;;;;;;5033031;28;20025;-56
2021/10/28 20:59:18;;;;;;;15.35;7.72;;;;;;;;;;5032602;28;20018;-55
2021/10/28 21:01:44;;;;;;;17.75;7.95;;;;;;;;;;5033219;28;20083;-55
2021/10/28 21:04:10;;;;;;;15.52;7.93;;;;;;;;;;5032364;28;20072;-55
2021/10/28 21:06:37;;;;;;;14.13;7.25;;;;;;;;;;5031618;28;20121;-55
2021/10/28 21:09:03;;;;;;;14.50;7.05;;;;;;;;;;5033137;28;20026;-56
2021/10/28 21:11:29;;;;;;;12.60;6.82;;;;;;;;;;5032764;28;20037;-55
2021/10/28 21:13:55;;;;;;;16.45;7.63;;;;;;;;;;5031863;28;20350;-55
2021/10/28 21:16:22;;;;;;;16.77;7.90;;;;;;;;;;5032967;28;20255;-55
2021/10/28 21:18:48;;;;;;;15.85;7.60;;;;;;;;;;5033067;28;20465;-55
2021/10/28 21:21:14;;;;;;;13.25;7.15;;;;;;;;;;5032814;28;20033;-55
2021/10/28 21:23:40;;;;;;;12.90;7.20;;;;;;;;;;5031815;28;20014;-55
2021/10/28 21:26:06;;;;;;;12.00;6.88;;;;;;;;;;5032579;28;20047;-56
2021/10/28 21:28:32;;;;;;;11.63;6.82;;;;;;;;;;5032587;28;20033;-55
2021/10/28 21:30:58;;;;;;;11.10;5.97;;;;;;;;;;5032684;28;20042;-56
2021/10/28 21:33:24;;;;;;;14.02;6.90;;;;;;;;;;5032021;28;20053;-55
2021/10/28 21:35:51;;;;;;;10.27;5.93;;;;;;;;;;5032649;28;20052;-55
2021/10/28 21:38:18;;;;;;;11.52;6.78;;;;;;;;;;5032230;28;20100;-55
2021/10/28 21:40:44;;;;;;;10.32;5.95;;;;;;;;;;5033550;28;20053;-56
2021/10/28 21:43:11;;;;;;;11.85;6.10;;;;;;;;;;5036111;28;20044;-56
2021/10/28 21:45:37;;;;;;;11.90;6.25;;;;;;;;;;5036571;28;20029;-56
2021/10/28 21:48:03;;;;;;;10.43;6.15;;;;;;;;;;5036961;28;20027;-55
2021/10/28 21:50:30;;;;;;;11.00;5.13;;;;;;;;;;5036477;28;20076;-55
2021/10/28 21:53:00;;;;;;;12.60;6.72;;;;;;;;;;5035509;28;20455;-55
2021/10/28 22:00:33;;;;;;;8.82;5.30;;;;;;;;;;5036248;28;20044;-56
2021/10/28 22:27:17;;;;;;;10.27;5.28;;;;;;;;;;5055966;28;20031;-55
2021/10/28 22:29:43;;;;;;;11.68;5.60;;;;;;;;;;5055636;28;20258;-55
2021/10/28 22:32:10;;;;;;;11.02;6.03;;;;;;;;;;5054542;28;20021;-55
2021/10/28 22:34:37;;;;;;;11.23;6.38;;;;;;;;;;5053232;28;20032;-55
2021/10/28 22:37:20;;;;;;;9.57;5.72;;;;;;;;;;5055677;28;20077;-55
2021/10/28 22:42:19;;;;;;;12.52;6.18;;;;;;;;;;5055339;28;20367;-55
2021/10/28 22:44:45;;;;;;;13.93;5.85;;;;;;;;;;5054164;28;20070;-55
2021/10/28 22:47:11;;;;;;;13.32;7.22;;;;;;;;;;5053995;28;20021;-55
2021/10/28 22:49:37;;;;;;;9.60;5.85;;;;;;;;;;5055135;28;20029;-56
2021/10/28 22:52:08;;;;;;;12.95;6.00;;;;;;;;;;5052714;28;20093;-56
2021/10/28 22:54:35;;;;;;;13.23;6.18;;;;;;;;;;5053810;28;20374;-55
2021/10/28 22:57:02;;;;;;;10.63;5.22;;;;;;;;;;5054731;28;20484;-55
2021/10/28 22:59:28;;;;;;;10.27;5.13;;;;;;;;;;5054741;28;20017;-55
2021/10/28 23:02:01;;;;;;;10.30;5.57;;;;;;;;;;5053864;28;20057;-55
2021/10/28 23:04:51;;;;;;;9.48;5.30;;;;;;;;;;5054367;28;20020;-55
2021/10/28 23:07:46;;;;;;;10.60;5.30;;;;;;;;;;5055210;28;20103;-55
2021/10/28 23:13:22;;;;;;;9.73;4.93;;;;;;;;;;5054884;28;20044;-55
2021/10/28 23:21:15;;;;;;;9.15;5.75;;;;;;;;;;5034613;28;20036;-55
2021/10/28 23:23:41;;;;;;;6.88;4.25;;;;;;;;;;5033496;28;20340;-55
2021/10/28 23:26:07;;;;;;;7.18;4.25;;;;;;;;;;5034998;28;20092;-55
2021/10/28 23:28:33;;;;;;;6.70;4.35;;;;;;;;;;5034533;28;20033;-55
2021/10/28 23:30:59;;;;;;;8.73;4.43;;;;;;;;;;5033297;28;20064;-55
2021/10/28 23:33:26;;;;;;;7.30;4.50;;;;;;;;;;5043842;28;20057;-55
2021/10/28 23:35:53;;;;;;;5.95;3.92;;;;;;;;;;5054920;28;20029;-55
2021/10/28 23:38:19;;;;;;;7.07;4.53;;;;;;;;;;5054651;28;20021;-55
2021/10/28 23:40:45;;;;;;;8.73;4.32;;;;;;;;;;5052931;28;20094;-55
2021/10/28 23:43:11;;;;;;;8.52;4.93;;;;;;;;;;5053361;28;20028;-55
2021/10/28 23:45:37;;;;;;;6.13;4.18;;;;;;;;;;5054031;28;20032;-56
2021/10/28 23:48:03;;;;;;;8.02;4.28;;;;;;;;;;5053589;28;20025;-56
2021/10/28 23:50:29;;;;;;;9.35;5.00;;;;;;;;;;5054146;28;20359;-56
2021/10/28 23:52:55;;;;;;;6.38;4.10;;;;;;;;;;5051818;28;20028;-55
2021/10/28 23:55:21;;;;;;;8.23;4.63;;;;;;;;;;5053874;28;20143;-55
2021/10/28 23:57:47;;;;;;;9.18;4.82;;;;;;;;;;5053715;28;20367;-55
